Time;durP1;ratioP1;P1;durP2;ratioP2;P2;SDS_P1;SDS_P2;PMS_P1;PMS_P2;Temp;Humidity;BMP_temperature;BMP_pressure;BME280_temperature;BME280_humidity;BME280_pressure;Samples;Min_cycle;Max_cycle;Signal;HPM_P1;HPM_P2
2022/01/24 00:01:52;;;;;;;;;;;21.50;51.30;;;;;;5086618;28;19912;-70
2022/01/24 00:04:17;;;;;;;;;;;21.50;51.30;;;;;;5084593;28;19912;-72
2022/01/24 00:06:43;;;;;;;;;;;21.40;51.30;;;;;;5086229;28;19920;-72
2022/01/24 00:09:10;;;;;;;;;;;21.50;51.40;;;;;;5086826;28;20209;-72
2022/01/24 00:27:14;;;;;;;;;;;21.30;51.30;;;;;;5083787;28;20248;-73
2022/01/24 00:29:39;;;;;;;;;;;21.40;51.40;;;;;;5085063;28;19916;-70
2022/01/24 00:32:05;;;;;;;;;;;21.40;51.40;;;;;;5086545;28;19932;-71
2022/01/24 00:34:31;;;;;;;;;;;21.40;51.40;;;;;;5086346;28;20541;-73
2022/01/24 00:36:56;;;;;;;;;;;21.30;51.30;;;;;;5085879;28;19924;-71
2022/01/24 00:39:22;;;;;;;;;;;21.30;51.30;;;;;;5084192;28;19920;-72
2022/01/24 00:47:05;;;;;;;;;;;21.30;51.40;;;;;;5085628;28;19913;-72
2022/01/24 00:54:44;;;;;;;;;;;21.30;51.40;;;;;;5083752;28;19998;-72
2022/01/24 00:57:10;;;;;;;;;;;21.30;51.40;;;;;;5083891;28;19916;-72
2022/01/24 00:59:35;;;;;;;;;;;21.30;51.40;;;;;;5081492;28;19920;-72
2022/01/24 01:02:01;;;;;;;;;;;21.30;51.40;;;;;;5083342;28;19913;-72
2022/01/24 01:04:35;;;;;;;;;;;21.30;51.40;;;;;;5085106;28;20364;-71
2022/01/24 01:07:05;;;;;;;;;;;21.30;51.40;;;;;;5080505;28;19919;-72
2022/01/24 01:20:33;;;;;;;;;;;21.20;51.40;;;;;;5082585;28;19968;-73
2022/01/24 01:22:59;;;;;;;;;;;21.20;51.40;;;;;;5084963;28;19920;-72
2022/01/24 01:25:24;;;;;;;;;;;21.20;51.40;;;;;;5081624;28;19919;-72
2022/01/24 01:27:52;;;;;;;;;;;21.20;51.40;;;;;;5084109;28;19920;-72
2022/01/24 01:30:22;;;;;;;;;;;21.20;51.40;;;;;;5084181;28;20279;-70
2022/01/24 01:56:52;;;;;;;;;;;21.10;51.40;;;;;;5080246;28;19912;-72
2022/01/24 01:59:18;;;;;;;;;;;21.10;51.40;;;;;;5085350;28;19923;-72
2022/01/24 02:01:43;;;;;;;;;;;21.00;51.40;;;;;;5080888;28;19920;-70
2022/01/24 02:04:09;;;;;;;;;;;21.10;51.40;;;;;;5080431;28;19916;-72
2022/01/24 02:06:34;;;;;;;;;;;21.00;51.40;;;;;;5079630;28;19912;-73
2022/01/24 02:09:01;;;;;;;;;;;21.00;51.40;;;;;;5084657;28;19920;-70
2022/01/24 02:11:26;;;;;;;;;;;21.00;51.40;;;;;;5078510;28;20007;-72
2022/01/24 02:13:52;;;;;;;;;;;21.00;51.40;;;;;;5083164;28;20006;-72
2022/01/24 02:19:07;;;;;;;;;;;21.00;51.40;;;;;;5082056;28;19957;-71
2022/01/24 02:21:44;;;;;;;;;;;21.00;51.40;;;;;;5082010;28;20010;-71
2022/01/24 02:24:14;;;;;;;;;;;21.00;51.40;;;;;;5085674;28;19916;-72
2022/01/24 02:26:40;;;;;;;;;;;21.00;51.40;;;;;;5084963;28;19937;-72
2022/01/24 02:29:13;;;;;;;;;;;21.00;51.40;;;;;;5084312;28;20403;-72
2022/01/24 02:31:48;;;;;;;;;;;21.00;51.40;;;;;;5082449;28;20308;-71
2022/01/24 02:34:19;;;;;;;;;;;20.90;51.50;;;;;;5083412;28;20002;-72
2022/01/24 02:36:45;;;;;;;;;;;20.90;51.40;;;;;;5084348;28;19912;-72
2022/01/24 02:50:03;;;;;;;;;;;20.90;51.40;;;;;;5089953;28;19927;-72
2022/01/24 02:52:29;;;;;;;;;;;20.90;51.40;;;;;;5088927;28;20245;-72
2022/01/24 02:54:54;;;;;;;;;;;20.90;51.40;;;;;;5088134;28;19913;-73
2022/01/24 02:57:20;;;;;;;;;;;20.90;51.40;;;;;;5091012;28;19912;-72
2022/01/24 02:59:46;;;;;;;;;;;20.90;51.40;;;;;;5082136;28;20328;-73
2022/01/24 03:02:12;;;;;;;;;;;20.90;51.40;;;;;;5088617;28;19916;-72
2022/01/24 03:04:37;;;;;;;;;;;20.90;51.40;;;;;;5083544;28;19923;-71
2022/01/24 03:07:03;;;;;;;;;;;20.80;51.40;;;;;;5087587;28;19995;-72
2022/01/24 03:09:28;;;;;;;;;;;20.80;51.30;;;;;;5087402;28;20319;-71
2022/01/24 03:12:07;;;;;;;;;;;20.80;51.40;;;;;;5089785;28;19927;-71
2022/01/24 03:14:34;;;;;;;;;;;20.80;51.30;;;;;;5088550;28;19916;-72
2022/01/24 03:17:00;;;;;;;;;;;20.80;51.30;;;;;;5083049;28;19916;-72
2022/01/24 03:19:26;;;;;;;;;;;20.80;51.30;;;;;;5087758;28;20034;-72
2022/01/24 03:21:52;;;;;;;;;;;20.80;51.40;;;;;;5088228;28;20118;-72
2022/01/24 03:24:18;;;;;;;;;;;20.80;51.40;;;;;;5087531;28;19912;-72
2022/01/24 03:26:43;;;;;;;;;;;20.80;51.30;;;;;;5086460;28;20377;-73
2022/01/24 03:29:09;;;;;;;;;;;20.80;51.40;;;;;;5086738;28;20502;-71
2022/01/24 03:31:35;;;;;;;;;;;20.80;51.30;;;;;;5088285;28;19916;-72
2022/01/24 03:34:01;;;;;;;;;;;20.80;51.30;;;;;;5090910;28;19912;-70
2022/01/24 03:36:26;;;;;;;;;;;20.80;51.40;;;;;;5089351;28;19912;-71
2022/01/24 03:38:52;;;;;;;;;;;20.70;51.30;;;;;;5083396;28;20399;-73
2022/01/24 03:41:17;;;;;;;;;;;20.70;51.30;;;;;;5085668;28;19912;-72
2022/01/24 03:43:43;;;;;;;;;;;20.80;51.40;;;;;;5087207;28;19927;-71
2022/01/24 03:48:47;;;;;;;;;;;20.70;51.30;;;;;;5082824;28;19932;-71
2022/01/24 03:51:13;;;;;;;;;;;20.70;51.30;;;;;;5087937;28;19981;-71
2022/01/24 03:53:39;;;;;;;;;;;20.70;51.30;;;;;;5085012;28;20364;-72
2022/01/24 03:56:04;;;;;;;;;;;20.70;51.30;;;;;;5086542;28;19912;-70
2022/01/24 03:58:30;;;;;;;;;;;20.70;51.30;;;;;;5080574;28;19912;-70
2022/01/24 04:00:56;;;;;;;;;;;20.70;51.30;;;;;;5087827;28;19989;-72
2022/01/24 04:03:22;;;;;;;;;;;20.70;51.30;;;;;;5087938;28;19916;-72
2022/01/24 04:05:47;;;;;;;;;;;20.70;51.30;;;;;;5087622;28;19941;-71
2022/01/24 04:08:13;;;;;;;;;;;20.70;51.30;;;;;;5087564;28;19931;-70
2022/01/24 04:10:44;;;;;;;;;;;20.70;51.30;;;;;;5087193;28;19916;-73
2022/01/24 04:13:33;;;;;;;;;;;20.70;51.30;;;;;;5084093;28;19962;-72
2022/01/24 04:23:44;;;;;;;;;;;20.70;51.40;;;;;;5079410;28;20529;-71
2022/01/24 04:26:09;;;;;;;;;;;20.70;51.30;;;;;;5082408;28;20392;-73
2022/01/24 04:28:35;;;;;;;;;;;20.70;51.30;;;;;;5085257;28;19962;-72
2022/01/24 04:31:00;;;;;;;;;;;20.60;51.30;;;;;;5081346;28;19916;-72
2022/01/24 04:33:26;;;;;;;;;;;20.60;51.30;;;;;;5087014;28;19966;-71
2022/01/24 04:35:51;;;;;;;;;;;20.60;51.30;;;;;;5088224;28;19915;-71
2022/01/24 04:38:17;;;;;;;;;;;20.60;51.30;;;;;;5084322;28;20023;-72
2022/01/24 04:40:43;;;;;;;;;;;20.60;51.30;;;;;;5083310;28;20395;-72
2022/01/24 04:51:27;;;;;;;;;;;20.60;51.30;;;;;;5084603;28;19927;-72
2022/01/24 04:56:34;;;;;;;;;;;20.60;51.20;;;;;;5084010;28;19959;-72
2022/01/24 04:58:59;;;;;;;;;;;20.60;51.20;;;;;;5084983;28;19950;-70
2022/01/24 05:01:25;;;;;;;;;;;20.60;51.30;;;;;;5081944;28;19916;-72
2022/01/24 05:03:51;;;;;;;;;;;20.60;51.30;;;;;;5084188;28;19952;-72
2022/01/24 05:06:17;;;;;;;;;;;20.60;51.30;;;;;;5083157;28;19941;-71
2022/01/24 05:08:42;;;;;;;;;;;20.60;51.30;;;;;;5086595;28;19916;-72
2022/01/24 05:11:12;;;;;;;;;;;20.60;51.30;;;;;;5086268;28;20550;-72
2022/01/24 05:24:29;;;;;;;;;;;20.50;51.30;;;;;;5078838;28;19920;-71
2022/01/24 05:26:55;;;;;;;;;;;20.50;51.30;;;;;;5082418;28;19922;-72
2022/01/24 05:29:21;;;;;;;;;;;20.50;51.40;;;;;;5086170;28;19934;-71
2022/01/24 05:31:46;;;;;;;;;;;20.50;51.40;;;;;;5085216;28;19920;-73
2022/01/24 05:34:12;;;;;;;;;;;20.50;51.40;;;;;;5086543;28;19916;-72
2022/01/24 05:36:37;;;;;;;;;;;20.50;51.40;;;;;;5084716;28;19955;-72
2022/01/24 05:39:03;;;;;;;;;;;20.50;51.40;;;;;;5084845;28;20011;-72
2022/01/24 05:41:28;;;;;;;;;;;20.50;51.40;;;;;;5084028;28;19916;-72
2022/01/24 05:43:54;;;;;;;;;;;20.50;51.40;;;;;;5079214;28;20383;-73
2022/01/24 05:46:19;;;;;;;;;;;20.50;51.40;;;;;;5081794;28;19963;-73
2022/01/24 05:48:45;;;;;;;;;;;20.50;51.40;;;;;;5079474;28;19917;-70
2022/01/24 05:51:11;;;;;;;;;;;20.50;51.50;;;;;;5082923;28;19926;-69
2022/01/24 05:53:36;;;;;;;;;;;20.50;51.50;;;;;;5084796;28;19924;-72
2022/01/24 05:56:02;;;;;;;;;;;20.50;51.50;;;;;;5081585;28;19920;-72
2022/01/24 05:58:27;;;;;;;;;;;20.50;51.50;;;;;;5082543;28;20455;-72
2022/01/24 06:00:53;;;;;;;;;;;20.50;51.50;;;;;;5083828;28;20015;-71
2022/01/24 06:03:18;;;;;;;;;;;20.50;51.50;;;;;;5087602;28;19923;-72
2022/01/24 06:05:44;;;;;;;;;;;20.50;51.60;;;;;;5085556;28;19920;-72
2022/01/24 06:08:09;;;;;;;;;;;20.50;51.50;;;;;;5084760;28;20012;-72
2022/01/24 06:10:37;;;;;;;;;;;20.50;51.60;;;;;;5079092;28;20323;-72
2022/01/24 06:13:03;;;;;;;;;;;20.50;51.60;;;;;;5081963;28;19923;-70
2022/01/24 06:15:28;;;;;;;;;;;20.50;51.60;;;;;;5086623;28;19916;-73
2022/01/24 06:17:54;;;;;;;;;;;20.50;51.60;;;;;;5081586;28;20018;-71
2022/01/24 06:20:19;;;;;;;;;;;20.50;51.60;;;;;;5087109;28;19916;-71
2022/01/24 06:22:45;;;;;;;;;;;20.50;51.60;;;;;;5082899;28;20048;-72
2022/01/24 06:25:12;;;;;;;;;;;20.40;51.60;;;;;;5084722;28;19912;-71
2022/01/24 06:27:38;;;;;;;;;;;20.40;51.60;;;;;;5080837;28;19916;-70
2022/01/24 06:30:04;;;;;;;;;;;20.40;51.60;;;;;;5076570;28;19912;-73
2022/01/24 06:32:29;;;;;;;;;;;20.40;51.60;;;;;;5081108;28;19945;-73
2022/01/24 06:34:58;;;;;;;;;;;20.40;51.80;;;;;;5101418;28;19962;-73
2022/01/24 06:37:23;;;;;;;;;;;20.50;53.20;;;;;;5079366;28;19916;-74
2022/01/24 06:39:49;;;;;;;;;;;20.70;53.50;;;;;;5082842;28;20015;-73
2022/01/24 06:42:22;;;;;;;;;;;21.00;53.20;;;;;;5083767;28;20081;-73
2022/01/24 06:44:48;;;;;;;;;;;21.20;52.90;;;;;;5101555;28;19961;-71
2022/01/24 06:47:13;;;;;;;;;;;21.40;52.70;;;;;;5089392;28;19969;-71
2022/01/24 06:49:39;;;;;;;;;;;21.60;52.60;;;;;;5086813;28;19921;-73
2022/01/24 06:52:06;;;;;;;;;;;21.80;52.40;;;;;;5088765;28;20459;-72
2022/01/24 06:54:35;;;;;;;;;;;22.00;52.30;;;;;;5084762;28;20355;-69
2022/01/24 06:57:02;;;;;;;;;;;22.10;52.10;;;;;;5083090;28;19916;-72
2022/01/24 06:59:27;;;;;;;;;;;22.30;52.00;;;;;;5086891;28;19908;-73
2022/01/24 07:01:52;;;;;;;;;;;22.40;52.00;;;;;;5088870;28;19927;-71
2022/01/24 07:04:18;;;;;;;;;;;22.60;51.90;;;;;;5088238;28;19920;-72
2022/01/24 07:06:43;;;;;;;;;;;22.70;51.80;;;;;;5085535;28;19923;-72
2022/01/24 07:09:09;;;;;;;;;;;22.80;51.60;;;;;;5084603;28;19924;-72
2022/01/24 07:11:35;;;;;;;;;;;23.00;51.40;;;;;;5087239;28;19920;-74
2022/01/24 07:14:05;;;;;;;;;;;23.20;51.20;;;;;;5099406;28;20006;-71
2022/01/24 07:16:48;;;;;;;;;;;23.30;51.00;;;;;;5083623;28;20125;-72
2022/01/24 07:19:13;;;;;;;;;;;23.20;50.90;;;;;;5083032;28;19923;-73
2022/01/24 07:21:39;;;;;;;;;;;23.10;51.10;;;;;;5088621;28;19916;-70
2022/01/24 07:24:05;;;;;;;;;;;23.00;51.40;;;;;;5089807;28;19916;-71
2022/01/24 07:26:30;;;;;;;;;;;22.90;51.60;;;;;;5085425;28;19962;-71
2022/01/24 07:28:56;;;;;;;;;;;22.90;51.80;;;;;;5083587;28;19944;-73
2022/01/24 07:31:22;;;;;;;;;;;22.90;51.90;;;;;;5090593;28;19924;-74
2022/01/24 07:33:47;;;;;;;;;;;22.80;51.90;;;;;;5089845;28;19916;-73
2022/01/24 07:36:18;;;;;;;;;;;22.80;52.00;;;;;;5094459;28;19916;-73
2022/01/24 07:38:44;;;;;;;;;;;22.80;52.00;;;;;;5090583;28;20028;-75
2022/01/24 07:41:10;;;;;;;;;;;22.80;52.00;;;;;;5091032;28;19955;-75
2022/01/24 07:43:35;;;;;;;;;;;22.80;52.00;;;;;;5089316;28;20387;-72
2022/01/24 07:46:01;;;;;;;;;;;22.80;52.10;;;;;;5088490;28;19958;-74
2022/01/24 07:48:26;;;;;;;;;;;22.90;52.10;;;;;;5086775;28;20518;-71
2022/01/24 07:50:52;;;;;;;;;;;22.90;52.20;;;;;;5088476;28;19928;-74
2022/01/24 07:53:19;;;;;;;;;;;22.90;52.30;;;;;;5087077;28;19912;-74
2022/01/24 07:55:45;;;;;;;;;;;22.90;52.50;;;;;;5087068;28;20325;-73
2022/01/24 07:58:11;;;;;;;;;;;23.00;52.50;;;;;;5087129;28;19919;-72
2022/01/24 08:00:36;;;;;;;;;;;23.00;52.60;;;;;;5086172;28;19915;-70
2022/01/24 08:03:02;;;;;;;;;;;23.10;53.20;;;;;;5092660;28;19916;-69
2022/01/24 08:05:28;;;;;;;;;;;23.10;52.70;;;;;;5090183;28;19912;-69
2022/01/24 08:07:53;;;;;;;;;;;23.10;52.60;;;;;;5088900;28;20407;-69
2022/01/24 08:10:19;;;;;;;;;;;23.10;52.50;;;;;;5082736;28;19981;-71
2022/01/24 08:12:45;;;;;;;;;;;23.10;52.40;;;;;;5090859;28;19916;-72
2022/01/24 08:15:14;;;;;;;;;;;23.10;52.80;;;;;;5090168;28;19959;-72
2022/01/24 08:17:40;;;;;;;;;;;23.20;52.90;;;;;;5085237;28;20360;-69
2022/01/24 08:20:06;;;;;;;;;;;23.20;53.20;;;;;;5094646;28;19916;-72
2022/01/24 08:22:31;;;;;;;;;;;23.20;53.10;;;;;;5086098;28;19984;-72
2022/01/24 08:24:57;;;;;;;;;;;23.20;52.90;;;;;;5089841;28;19912;-73
2022/01/24 08:27:25;;;;;;;;;;;23.30;53.10;;;;;;5082750;28;20229;-71
2022/01/24 08:29:50;;;;;;;;;;;23.30;53.50;;;;;;5092093;28;19984;-75
2022/01/24 08:32:16;;;;;;;;;;;23.30;53.40;;;;;;5090125;28;19967;-70
2022/01/24 08:34:42;;;;;;;;;;;23.30;53.50;;;;;;5092375;28;19920;-71
2022/01/24 08:37:07;;;;;;;;;;;23.40;53.70;;;;;;5088448;28;19913;-68
2022/01/24 08:39:33;;;;;;;;;;;23.40;53.90;;;;;;5089446;28;19980;-73
2022/01/24 08:42:10;;;;;;;;;;;23.40;54.20;;;;;;5092654;28;19916;-72
2022/01/24 08:47:05;;;;;;;;;;;23.50;54.20;;;;;;5091467;28;19912;-70
2022/01/24 08:49:31;;;;;;;;;;;23.50;54.40;;;;;;5086491;28;19962;-70
2022/01/24 08:51:58;;;;;;;;;;;23.50;54.20;;;;;;5087390;28;20253;-72
2022/01/24 08:54:24;;;;;;;;;;;23.50;54.30;;;;;;5090936;28;20273;-70
2022/01/24 08:56:49;;;;;;;;;;;23.60;54.50;;;;;;5089824;28;19920;-72
2022/01/24 08:59:15;;;;;;;;;;;23.60;54.50;;;;;;5084797;28;19926;-70
2022/01/24 09:01:40;;;;;;;;;;;23.60;54.30;;;;;;5085492;28;19916;-69
2022/01/24 09:04:06;;;;;;;;;;;23.60;54.30;;;;;;5087868;28;19917;-69
2022/01/24 09:06:31;;;;;;;;;;;23.70;54.40;;;;;;5090441;28;19918;-71
2022/01/24 09:09:01;;;;;;;;;;;23.70;54.30;;;;;;5092080;28;20269;-74
2022/01/24 09:11:28;;;;;;;;;;;23.70;54.30;;;;;;5080345;28;19919;-72
2022/01/24 09:13:54;;;;;;;;;;;23.70;54.30;;;;;;5089440;28;20011;-71
2022/01/24 09:16:19;;;;;;;;;;;23.70;54.30;;;;;;5093867;28;19959;-74
2022/01/24 09:18:45;;;;;;;;;;;23.80;54.40;;;;;;5088511;28;20053;-71
2022/01/24 09:21:10;;;;;;;;;;;23.80;54.40;;;;;;5084681;28;19912;-71
2022/01/24 09:23:36;;;;;;;;;;;23.80;54.40;;;;;;5082205;28;20431;-70
2022/01/24 09:26:02;;;;;;;;;;;23.90;54.90;;;;;;5082328;28;19951;-74
2022/01/24 09:28:27;;;;;;;;;;;23.90;54.60;;;;;;5084832;28;19962;-71
2022/01/24 09:30:53;;;;;;;;;;;23.90;55.00;;;;;;5085826;28;19913;-72
2022/01/24 09:33:18;;;;;;;;;;;24.00;54.60;;;;;;5084820;28;19932;-72
2022/01/24 09:35:45;;;;;;;;;;;24.00;54.60;;;;;;5083422;28;20003;-73
2022/01/24 09:38:11;;;;;;;;;;;24.00;54.60;;;;;;5091486;28;19918;-71
2022/01/24 09:40:37;;;;;;;;;;;24.10;54.90;;;;;;5079180;28;19916;-72
2022/01/24 09:43:03;;;;;;;;;;;24.10;54.60;;;;;;5082253;28;20752;-73
2022/01/24 09:45:29;;;;;;;;;;;24.10;54.80;;;;;;5087346;28;19951;-70
2022/01/24 09:47:54;;;;;;;;;;;24.10;54.70;;;;;;5084020;28;19923;-69
2022/01/24 09:50:22;;;;;;;;;;;24.20;54.70;;;;;;5085849;28;21440;-70
2022/01/24 09:52:48;;;;;;;;;;;24.20;54.70;;;;;;5086370;28;19966;-73
2022/01/24 09:55:19;;;;;;;;;;;24.20;54.70;;;;;;5083102;28;19927;-71
2022/01/24 09:57:47;;;;;;;;;;;24.30;54.60;;;;;;5096124;28;19923;-73
2022/01/24 10:00:14;;;;;;;;;;;24.30;54.60;;;;;;5081403;28;19947;-71
2022/01/24 10:02:39;;;;;;;;;;;24.30;54.60;;;;;;5086743;28;19922;-72
2022/01/24 10:05:33;;;;;;;;;;;24.30;54.50;;;;;;5085643;28;20007;-71
2022/01/24 10:07:59;;;;;;;;;;;24.30;54.60;;;;;;5083553;28;19920;-70
2022/01/24 10:10:33;;;;;;;;;;;24.40;54.40;;;;;;5088404;28;19916;-73
2022/01/24 10:16:35;;;;;;;;;;;24.40;54.40;;;;;;5092919;28;19923;-73
2022/01/24 10:19:03;;;;;;;;;;;24.50;54.30;;;;;;5089944;28;19951;-73
2022/01/24 10:21:29;;;;;;;;;;;24.50;54.30;;;;;;5107592;28;20066;-70
2022/01/24 10:23:55;;;;;;;;;;;24.50;54.10;;;;;;5090293;28;20239;-71
2022/01/24 10:26:23;;;;;;;;;;;24.60;54.20;;;;;;5094717;28;20072;-69
2022/01/24 10:28:49;;;;;;;;;;;24.60;54.10;;;;;;5089142;28;19916;-72
2022/01/24 10:31:16;;;;;;;;;;;24.60;54.10;;;;;;5083274;28;20285;-73
2022/01/24 10:33:50;;;;;;;;;;;24.60;54.00;;;;;;5094263;28;19919;-70
2022/01/24 10:36:36;;;;;;;;;;;24.70;54.60;;;;;;5092232;28;20296;-72
2022/01/24 10:39:08;;;;;;;;;;;24.60;54.00;;;;;;5092788;28;19920;-73
2022/01/24 10:42:21;;;;;;;;;;;24.70;53.90;;;;;;5084719;28;19918;-71
2022/01/24 10:44:33;;;;;;;;;;;24.70;54.50;;;;;;5081342;28;20023;-70
2022/01/24 10:47:10;;;;;;;;;;;24.80;54.00;;;;;;5084087;28;20091;-68
2022/01/24 10:49:36;;;;;;;;;;;24.80;53.60;;;;;;5083578;28;19916;-69
2022/01/24 10:52:09;;;;;;;;;;;24.80;54.00;;;;;;5085906;28;19939;-70
2022/01/24 10:54:35;;;;;;;;;;;24.80;53.80;;;;;;5072363;28;20298;-72
2022/01/24 10:57:00;;;;;;;;;;;24.90;54.00;;;;;;5082442;28;20023;-73
2022/01/24 10:59:26;;;;;;;;;;;24.90;54.20;;;;;;5083059;28;19918;-70
2022/01/24 11:01:56;;;;;;;;;;;24.90;54.30;;;;;;5085921;28;19947;-71
2022/01/24 11:04:33;;;;;;;;;;;24.90;54.10;;;;;;5085999;28;19912;-72
2022/01/24 11:07:01;;;;;;;;;;;24.90;54.20;;;;;;5086735;28;19996;-72
2022/01/24 11:09:30;;;;;;;;;;;24.90;54.20;;;;;;5094794;28;19919;-71
2022/01/24 11:11:57;;;;;;;;;;;24.90;54.20;;;;;;5087958;28;19920;-71
2022/01/24 11:14:24;;;;;;;;;;;25.00;54.40;;;;;;5088642;28;19912;-71
2022/01/24 11:16:51;;;;;;;;;;;25.00;54.50;;;;;;5087725;28;19912;-72
2022/01/24 11:19:26;;;;;;;;;;;25.00;54.50;;;;;;5096066;28;20452;-71
2022/01/24 11:21:53;;;;;;;;;;;25.00;54.60;;;;;;5090525;28;19920;-73
2022/01/24 11:24:25;;;;;;;;;;;25.10;54.70;;;;;;5083185;28;19916;-72
2022/01/24 11:26:51;;;;;;;;;;;25.00;52.10;;;;;;5087463;28;19912;-72
2022/01/24 11:29:18;;;;;;;;;;;24.90;50.10;;;;;;5082589;28;20628;-71
2022/01/24 11:31:46;;;;;;;;;;;24.80;47.60;;;;;;5083630;28;19973;-72
2022/01/24 11:34:20;;;;;;;;;;;24.80;47.10;;;;;;5081215;28;19916;-69
2022/01/24 11:36:45;;;;;;;;;;;24.80;47.00;;;;;;5089280;28;19920;-74
2022/01/24 11:39:11;;;;;;;;;;;24.70;46.70;;;;;;5088491;28;20550;-72
2022/01/24 11:41:39;;;;;;;;;;;24.60;46.50;;;;;;5082783;28;19928;-71
2022/01/24 11:44:11;;;;;;;;;;;24.60;46.70;;;;;;5084713;28;19920;-69
2022/01/24 11:46:49;;;;;;;;;;;24.60;46.70;;;;;;5085934;28;20003;-71
2022/01/24 11:49:27;;;;;;;;;;;24.50;46.50;;;;;;5084302;28;19993;-73
2022/01/24 11:52:11;;;;;;;;;;;24.50;46.90;;;;;;5087576;28;19916;-70
2022/01/24 11:54:52;;;;;;;;;;;24.50;47.10;;;;;;5083992;28;20038;-69
2022/01/24 11:57:21;;;;;;;;;;;24.50;47.00;;;;;;5081373;28;19920;-69
2022/01/24 11:59:47;;;;;;;;;;;24.50;47.00;;;;;;5083274;28;19920;-72
2022/01/24 12:02:15;;;;;;;;;;;24.40;46.90;;;;;;5086404;28;19970;-72
2022/01/24 12:04:49;;;;;;;;;;;24.40;46.90;;;;;;5086064;28;20554;-72
2022/01/24 12:07:18;;;;;;;;;;;24.40;47.00;;;;;;5086081;28;19965;-70
2022/01/24 12:09:43;;;;;;;;;;;24.40;47.00;;;;;;5081216;28;19923;-72
2022/01/24 12:12:34;;;;;;;;;;;24.40;47.10;;;;;;5088132;28;19924;-69
2022/01/24 12:14:59;;;;;;;;;;;24.30;47.00;;;;;;5082688;28;20422;-70
2022/01/24 12:17:44;;;;;;;;;;;24.40;47.10;;;;;;5085858;28;19916;-70
2022/01/24 12:20:28;;;;;;;;;;;24.40;47.20;;;;;;5080496;28;19917;-70
2022/01/24 12:22:53;;;;;;;;;;;24.30;47.10;;;;;;5084752;28;19931;-70
2022/01/24 12:25:19;;;;;;;;;;;24.30;47.20;;;;;;5085020;28;19921;-69
2022/01/24 12:28:14;;;;;;;;;;;24.30;47.30;;;;;;5083345;28;19917;-69
2022/01/24 12:30:58;;;;;;;;;;;24.30;47.30;;;;;;5075390;28;20325;-71
2022/01/24 12:33:34;;;;;;;;;;;24.20;47.30;;;;;;5084808;28;20110;-72
2022/01/24 12:36:07;;;;;;;;;;;24.20;47.30;;;;;;5088117;28;19924;-73
2022/01/24 12:38:45;;;;;;;;;;;24.30;47.50;;;;;;5086127;28;19951;-70
2022/01/24 12:41:26;;;;;;;;;;;24.30;47.50;;;;;;5080378;28;20317;-71
2022/01/24 12:46:26;;;;;;;;;;;24.30;47.50;;;;;;5084834;28;20279;-72
2022/01/24 12:48:51;;;;;;;;;;;24.30;47.50;;;;;;5087297;28;19948;-73
2022/01/24 12:51:18;;;;;;;;;;;24.20;47.50;;;;;;5085784;28;19985;-71
2022/01/24 12:53:44;;;;;;;;;;;24.20;47.60;;;;;;5085269;28;19916;-71
2022/01/24 12:56:11;;;;;;;;;;;24.20;47.60;;;;;;5086057;28;19939;-69
2022/01/24 12:58:39;;;;;;;;;;;24.30;47.60;;;;;;5086140;28;19919;-75
2022/01/24 13:01:23;;;;;;;;;;;24.30;47.50;;;;;;5087965;28;19965;-74
2022/01/24 13:03:50;;;;;;;;;;;24.20;47.50;;;;;;5085981;28;20380;-71
2022/01/24 13:06:21;;;;;;;;;;;24.30;47.70;;;;;;5081791;28;19916;-70
2022/01/24 13:08:54;;;;;;;;;;;24.20;47.60;;;;;;5079767;28;19916;-70
2022/01/24 13:11:19;;;;;;;;;;;24.20;47.80;;;;;;5079375;28;19920;-72
2022/01/24 13:13:59;;;;;;;;;;;24.20;47.80;;;;;;5086941;28;19923;-73
2022/01/24 13:22:16;;;;;;;;;;;24.20;47.90;;;;;;5087926;28;19923;-72
2022/01/24 13:25:00;;;;;;;;;;;24.20;48.10;;;;;;5081830;28;20005;-72
2022/01/24 13:27:34;;;;;;;;;;;24.20;48.00;;;;;;5087777;28;19926;-70
2022/01/24 13:30:00;;;;;;;;;;;24.20;48.10;;;;;;5087786;28;19991;-72
2022/01/24 13:32:42;;;;;;;;;;;24.20;48.00;;;;;;5085352;28;20012;-71
2022/01/24 13:35:12;;;;;;;;;;;24.20;48.00;;;;;;5088348;28;19916;-70
2022/01/24 13:37:39;;;;;;;;;;;24.10;48.10;;;;;;5086773;28;20109;-74
2022/01/24 13:40:05;;;;;;;;;;;24.10;48.10;;;;;;5088420;28;20324;-69
2022/01/24 13:42:33;;;;;;;;;;;24.10;48.10;;;;;;5086206;28;19912;-72
2022/01/24 13:44:59;;;;;;;;;;;24.10;48.00;;;;;;5081775;28;19938;-70
2022/01/24 13:47:25;;;;;;;;;;;24.10;48.00;;;;;;5084461;28;19916;-74
2022/01/24 13:49:50;;;;;;;;;;;24.10;48.10;;;;;;5087410;28;19912;-73
2022/01/24 13:52:18;;;;;;;;;;;24.10;48.10;;;;;;5082029;28;19916;-70
2022/01/24 13:54:44;;;;;;;;;;;24.10;48.10;;;;;;5088162;28;19951;-70
2022/01/24 13:57:15;;;;;;;;;;;24.10;48.20;;;;;;5084691;28;19970;-71
2022/01/24 13:59:42;;;;;;;;;;;24.10;48.10;;;;;;5081950;28;20035;-71
2022/01/24 14:02:12;;;;;;;;;;;24.10;48.10;;;;;;5081273;28;19922;-71
2022/01/24 14:04:39;;;;;;;;;;;24.10;48.20;;;;;;5086129;28;19916;-70
2022/01/24 14:07:04;;;;;;;;;;;24.10;48.10;;;;;;5087502;28;19912;-73
2022/01/24 14:09:36;;;;;;;;;;;24.10;48.10;;;;;;5085379;28;19913;-72
2022/01/24 14:12:03;;;;;;;;;;;24.10;48.10;;;;;;5085304;28;19920;-70
2022/01/24 14:14:50;;;;;;;;;;;24.10;48.10;;;;;;5084580;28;19952;-69
2022/01/24 14:19:52;;;;;;;;;;;24.10;48.20;;;;;;5081579;28;20109;-73
2022/01/24 14:22:18;;;;;;;;;;;24.00;48.70;;;;;;5098950;28;19972;-68
2022/01/24 14:24:50;;;;;;;;;;;24.00;48.20;;;;;;5088342;28;20404;-68
2022/01/24 14:27:38;;;;;;;;;;;24.00;48.20;;;;;;5083616;28;20041;-72
2022/01/24 14:30:08;;;;;;;;;;;24.00;48.20;;;;;;5081043;28;19924;-68
2022/01/24 14:32:38;;;;;;;;;;;24.00;48.30;;;;;;5084126;28;19931;-71
2022/01/24 14:35:05;;;;;;;;;;;24.00;48.30;;;;;;5088304;28;19920;-72
2022/01/24 14:37:47;;;;;;;;;;;24.00;48.30;;;;;;5083949;28;20335;-72
2022/01/24 14:40:31;;;;;;;;;;;24.00;48.30;;;;;;5078947;28;19927;-71
2022/01/24 14:44:53;;;;;;;;;;;24.00;48.30;;;;;;5079302;28;19916;-74
2022/01/24 14:45:42;;;;;;;;;;;24.00;48.40;;;;;;5080350;28;19928;-70
2022/01/24 14:48:08;;;;;;;;;;;24.00;48.40;;;;;;5084957;28;20046;-70
2022/01/24 14:50:34;;;;;;;;;;;24.00;48.40;;;;;;5084726;28;19957;-72
2022/01/24 14:53:04;;;;;;;;;;;23.90;48.10;;;;;;5080126;28;20604;-73
2022/01/24 14:55:29;;;;;;;;;;;23.90;48.10;;;;;;5082870;28;19916;-71
2022/01/24 14:57:55;;;;;;;;;;;23.90;48.20;;;;;;5083284;28;20375;-73
2022/01/24 15:00:20;;;;;;;;;;;23.90;48.30;;;;;;5081989;28;19927;-74
2022/01/24 15:02:46;;;;;;;;;;;23.90;48.30;;;;;;5079709;28;20395;-75
2022/01/24 15:05:11;;;;;;;;;;;23.90;48.30;;;;;;5081145;28;20015;-73
2022/01/24 15:07:37;;;;;;;;;;;23.90;48.30;;;;;;5085030;28;20053;-75
2022/01/24 15:10:03;;;;;;;;;;;23.90;48.30;;;;;;5084474;28;19972;-71
2022/01/24 15:12:30;;;;;;;;;;;23.90;48.30;;;;;;5085786;28;20455;-70
2022/01/24 15:14:59;;;;;;;;;;;23.90;48.30;;;;;;5079237;28;20003;-72
2022/01/24 15:23:57;;;;;;;;;;;23.90;48.40;;;;;;5083499;28;19916;-71
2022/01/24 15:25:58;;;;;;;;;;;23.90;48.10;;;;;;5019693;28;20452;-71
2022/01/24 15:28:24;;;;;;;;;;;23.80;48.00;;;;;;5048673;28;19920;-71
2022/01/24 15:30:49;;;;;;;;;;;23.80;47.90;;;;;;5084867;28;19951;-70
2022/01/24 15:33:15;;;;;;;;;;;23.80;47.90;;;;;;5081608;28;20010;-72
2022/01/24 15:35:40;;;;;;;;;;;23.70;47.80;;;;;;5081726;28;19916;-71
2022/01/24 15:38:06;;;;;;;;;;;23.70;47.80;;;;;;5079459;28;19987;-71
2022/01/24 15:40:32;;;;;;;;;;;23.70;47.80;;;;;;5084553;28;19916;-71
2022/01/24 15:48:05;;;;;;;;;;;23.60;47.70;;;;;;5085217;28;19919;-72
2022/01/24 15:50:30;;;;;;;;;;;23.60;47.70;;;;;;5084570;28;20040;-72
2022/01/24 15:52:58;;;;;;;;;;;23.50;47.70;;;;;;5083873;28;20032;-72
2022/01/24 15:55:27;;;;;;;;;;;23.50;47.70;;;;;;5085307;28;19935;-69
2022/01/24 15:57:54;;;;;;;;;;;23.50;47.60;;;;;;5089716;28;20229;-70
2022/01/24 16:00:40;;;;;;;;;;;23.50;47.70;;;;;;5082514;28;19920;-70
2022/01/24 16:03:06;;;;;;;;;;;23.50;47.70;;;;;;5087229;28;20724;-72
2022/01/24 16:05:34;;;;;;;;;;;23.50;47.60;;;;;;5088600;28;19984;-71
2022/01/24 16:08:00;;;;;;;;;;;23.40;47.70;;;;;;5084889;28;20446;-70
2022/01/24 16:10:27;;;;;;;;;;;23.40;47.70;;;;;;5085539;28;19923;-72
2022/01/24 16:12:53;;;;;;;;;;;23.40;47.70;;;;;;5088499;28;19916;-71
2022/01/24 16:15:23;;;;;;;;;;;23.40;47.60;;;;;;5088438;28;19935;-72
2022/01/24 16:17:49;;;;;;;;;;;23.40;47.70;;;;;;5087634;28;20312;-73
2022/01/24 16:25:39;;;;;;;;;;;23.30;47.60;;;;;;5088824;28;19912;-72
2022/01/24 16:28:06;;;;;;;;;;;23.20;47.60;;;;;;5087407;28;19916;-72
2022/01/24 16:30:32;;;;;;;;;;;23.20;47.60;;;;;;5085740;28;19923;-73
2022/01/24 16:32:58;;;;;;;;;;;23.20;47.60;;;;;;5085113;28;19916;-72
2022/01/24 16:35:24;;;;;;;;;;;23.20;47.60;;;;;;5085075;28;19920;-70
2022/01/24 16:37:51;;;;;;;;;;;23.20;47.70;;;;;;5081320;28;19924;-70
2022/01/24 16:40:24;;;;;;;;;;;23.20;47.70;;;;;;5080787;28;20728;-73
2022/01/24 16:48:18;;;;;;;;;;;23.10;47.70;;;;;;5080837;28;19974;-73